createdAt,value
2019-02-27T00:00:45.437Z,360
2019-02-27T00:01:52.646Z,359
2019-02-27T00:02:59.875Z,359
2019-02-27T00:04:07.080Z,360
2019-02-27T00:05:14.317Z,360
2019-02-27T00:06:21.000Z,359
2019-02-27T00:07:27.933Z,360
2019-02-27T00:08:34.877Z,360
2019-02-27T00:09:42.093Z,360
2019-02-27T00:10:49.021Z,360
2019-02-27T00:11:56.243Z,360
2019-02-27T00:13:03.209Z,360
2019-02-27T00:14:10.421Z,360
2019-02-27T00:15:17.347Z,360
2019-02-27T00:16:24.572Z,360
2019-02-27T00:17:31.499Z,360
2019-02-27T00:18:38.421Z,361
2019-02-27T00:19:45.625Z,360
2019-02-27T00:20:52.841Z,361
2019-02-27T00:22:00.049Z,361
2019-02-27T00:23:07.237Z,361
2019-02-27T00:24:14.436Z,361
2019-02-27T00:25:21.370Z,361
2019-02-27T00:26:28.571Z,361
2019-02-27T00:27:35.536Z,361
2019-02-27T00:28:42.741Z,361
2019-02-27T00:29:49.748Z,361
2019-02-27T00:30:56.676Z,361
2019-02-27T00:32:03.886Z,361
2019-02-27T00:33:10.564Z,360
2019-02-27T00:34:17.759Z,360
2019-02-27T00:35:24.954Z,361
2019-02-27T00:36:32.159Z,361
2019-02-27T00:37:39.363Z,361
2019-02-27T00:38:46.620Z,361
2019-02-27T00:39:53.813Z,360
2019-02-27T00:41:01.039Z,361
2019-02-27T00:42:08.247Z,361
2019-02-27T00:43:15.455Z,361
2019-02-27T00:44:22.658Z,361
2019-02-27T00:45:29.860Z,360
2019-02-27T00:46:36.792Z,360
2019-02-27T00:47:43.992Z,361
2019-02-27T00:48:51.201Z,361
2019-02-27T00:49:58.415Z,361
2019-02-27T00:51:05.066Z,361
2019-02-27T00:52:12.289Z,362
2019-02-27T00:53:21.910Z,362
2019-02-27T00:54:32.910Z,361
2019-02-27T00:55:40.497Z,360
2019-02-27T00:56:47.693Z,361
2019-02-27T00:57:55.879Z,361
2019-02-27T00:59:03.080Z,361
2019-02-27T01:00:10.292Z,361
2019-02-27T01:01:17.493Z,361
2019-02-27T01:02:24.693Z,361
2019-02-27T01:03:31.624Z,361
2019-02-27T01:04:38.555Z,361
2019-02-27T01:05:45.781Z,361
2019-02-27T01:06:52.984Z,360
2019-02-27T01:08:00.198Z,361
2019-02-27T01:09:08.042Z,360
2019-02-27T01:10:14.971Z,360
2019-02-27T01:11:22.193Z,360
2019-02-27T01:12:29.393Z,360
2019-02-27T01:13:36.329Z,360
2019-02-27T01:14:43.522Z,359
2019-02-27T01:15:50.175Z,360
2019-02-27T01:16:57.393Z,360
2019-02-27T01:18:04.603Z,360
2019-02-27T01:19:11.842Z,359
2019-02-27T01:20:19.098Z,360
2019-02-27T01:21:26.299Z,361
2019-02-27T01:22:33.256Z,361
2019-02-27T01:23:45.271Z,361
2019-02-27T01:24:52.475Z,361
2019-02-27T01:25:59.416Z,361
2019-02-27T01:27:06.613Z,361
2019-02-27T01:28:13.829Z,361
2019-02-27T01:29:21.033Z,360
2019-02-27T01:30:28.253Z,361
2019-02-27T01:31:35.184Z,361
2019-02-27T01:32:42.126Z,360
2019-02-27T01:33:48.785Z,360
2019-02-27T01:34:56.011Z,361
2019-02-27T01:36:03.217Z,360
2019-02-27T01:37:10.426Z,361
2019-02-27T01:38:17.658Z,361
2019-02-27T01:39:24.873Z,361
2019-02-27T01:40:32.086Z,361
2019-02-27T01:41:38.739Z,361
2019-02-27T01:42:45.678Z,361
2019-02-27T01:43:52.889Z,361
2019-02-27T01:45:00.313Z,361
2019-02-27T01:46:07.534Z,361
2019-02-27T01:47:14.751Z,361
2019-02-27T01:48:21.666Z,361
2019-02-27T01:49:28.871Z,360
2019-02-27T01:50:35.817Z,360
2019-02-27T01:51:42.762Z,360
2019-02-27T01:52:49.974Z,360
2019-02-27T01:53:56.911Z,361
2019-02-27T01:55:03.841Z,361
2019-02-27T01:56:10.765Z,361
2019-02-27T01:57:17.958Z,361
2019-02-27T01:58:25.155Z,361
2019-02-27T01:59:32.362Z,361
2019-02-27T02:00:39.043Z,361
2019-02-27T02:01:46.266Z,360
2019-02-27T02:02:53.211Z,361
2019-02-27T02:03:59.869Z,361
2019-02-27T02:05:06.517Z,361
2019-02-27T02:06:13.449Z,361
2019-02-27T02:07:20.648Z,361
2019-02-27T02:08:27.592Z,361
2019-02-27T02:09:34.801Z,360
2019-02-27T02:10:41.726Z,360
2019-02-27T02:11:48.942Z,361
2019-02-27T02:12:56.156Z,361
2019-02-27T02:14:03.353Z,361
2019-02-27T02:15:10.301Z,360
2019-02-27T02:16:17.503Z,360
2019-02-27T02:17:24.727Z,360
2019-02-27T02:18:31.932Z,360
2019-02-27T02:19:39.136Z,361
2019-02-27T02:20:46.056Z,360
2019-02-27T02:21:53.273Z,361
2019-02-27T02:22:59.920Z,361
2019-02-27T02:24:07.114Z,361
2019-02-27T02:25:14.058Z,361
2019-02-27T02:26:21.285Z,361
2019-02-27T02:27:28.205Z,361
2019-02-27T02:28:35.424Z,361
2019-02-27T02:29:42.642Z,362
2019-02-27T02:30:49.574Z,362
2019-02-27T02:31:56.769Z,362
2019-02-27T02:33:03.988Z,362
2019-02-27T02:34:10.921Z,363
2019-02-27T02:35:17.869Z,363
2019-02-27T02:36:27.523Z,363
2019-02-27T02:37:39.005Z,362
2019-02-27T02:38:46.209Z,362
2019-02-27T02:39:56.179Z,362
2019-02-27T02:41:09.905Z,362
2019-02-27T02:42:17.111Z,362
2019-02-27T02:43:24.320Z,362
2019-02-27T02:44:31.536Z,362
2019-02-27T02:45:38.778Z,362
2019-02-27T02:46:47.222Z,362
2019-02-27T02:47:57.621Z,362
2019-02-27T02:49:09.223Z,361
2019-02-27T02:50:19.302Z,361
2019-02-27T02:51:30.521Z,361
2019-02-27T02:52:42.198Z,362
2019-02-27T02:53:50.078Z,361
2019-02-27T02:54:57.279Z,362
2019-02-27T02:56:04.484Z,362
2019-02-27T02:57:11.681Z,361
2019-02-27T02:58:18.920Z,361
2019-02-27T02:59:27.087Z,362
2019-02-27T03:00:39.827Z,362
2019-02-27T03:01:51.080Z,361
2019-02-27T03:03:02.501Z,361
2019-02-27T03:04:14.165Z,361
2019-02-27T03:05:25.003Z,361
2019-02-27T03:06:36.359Z,362
2019-02-27T03:07:46.447Z,361
2019-02-27T03:08:57.077Z,362
2019-02-27T03:10:08.840Z,362
2019-02-27T03:11:20.169Z,362
2019-02-27T03:12:31.506Z,362
2019-02-27T03:13:43.269Z,362
2019-02-27T03:14:55.046Z,362
2019-02-27T03:16:06.646Z,362
2019-02-27T03:17:19.551Z,362
2019-02-27T03:18:30.841Z,362
2019-02-27T03:19:43.132Z,362
2019-02-27T03:20:53.956Z,362
2019-02-27T03:22:05.195Z,362
2019-02-27T03:23:16.989Z,362
2019-02-27T03:24:29.548Z,362
2019-02-27T03:25:42.371Z,362
2019-02-27T03:26:53.755Z,362
2019-02-27T03:28:06.397Z,362
2019-02-27T03:29:17.974Z,362
2019-02-27T03:30:37.439Z,362
2019-02-27T03:31:44.668Z,362
2019-02-27T03:32:51.881Z,362
2019-02-27T03:34:09.651Z,362
2019-02-27T03:35:16.839Z,362
2019-02-27T03:36:23.797Z,361
2019-02-27T03:37:30.722Z,361
2019-02-27T03:38:37.928Z,360
2019-02-27T03:39:44.874Z,360
2019-02-27T03:40:52.076Z,360
2019-02-27T03:42:00.492Z,361
2019-02-27T03:43:11.987Z,361
2019-02-27T03:44:22.456Z,362
2019-02-27T03:45:32.623Z,362
2019-02-27T03:46:42.861Z,361
2019-02-27T03:47:53.718Z,362
2019-02-27T03:49:05.184Z,363
2019-02-27T03:50:16.311Z,363
2019-02-27T03:51:26.238Z,363
2019-02-27T03:52:37.892Z,363
2019-02-27T03:53:48.089Z,362
2019-02-27T03:54:58.896Z,361
2019-02-27T03:56:10.551Z,362
2019-02-27T03:57:21.230Z,362
2019-02-27T03:58:32.282Z,362
2019-02-27T03:59:44.366Z,363
2019-02-27T04:00:54.930Z,364
2019-02-27T04:02:07.445Z,363
2019-02-27T04:03:19.216Z,362
2019-02-27T04:04:31.368Z,362
2019-02-27T04:05:46.675Z,362
2019-02-27T04:06:57.813Z,362
2019-02-27T04:08:09.664Z,362
2019-02-27T04:09:34.956Z,361
2019-02-27T04:10:41.896Z,362
2019-02-27T04:11:49.334Z,362
2019-02-27T04:12:56.536Z,362
2019-02-27T04:14:06.480Z,362
2019-02-27T04:15:19.445Z,362
2019-02-27T04:16:31.046Z,362
2019-02-27T04:17:38.246Z,362
2019-02-27T04:18:45.173Z,363
2019-02-27T04:19:52.379Z,362
2019-02-27T04:20:59.064Z,363
2019-02-27T04:22:06.256Z,363
2019-02-27T04:23:13.848Z,363
2019-02-27T04:24:24.077Z,363
2019-02-27T04:25:33.104Z,363
2019-02-27T04:26:43.512Z,363
2019-02-27T04:27:56.857Z,362
2019-02-27T04:29:08.974Z,362
2019-02-27T04:30:16.613Z,363
2019-02-27T04:31:23.862Z,362
2019-02-27T04:32:36.508Z,362
2019-02-27T04:33:43.723Z,363
2019-02-27T04:34:50.933Z,363
2019-02-27T04:35:58.149Z,363
2019-02-27T04:37:05.392Z,363
2019-02-27T04:38:12.592Z,363
2019-02-27T04:39:19.811Z,363
2019-02-27T04:40:27.026Z,363
2019-02-27T04:41:34.462Z,363
2019-02-27T04:42:41.402Z,362
2019-02-27T04:43:48.623Z,362
2019-02-27T04:44:55.831Z,363
2019-02-27T04:46:02.967Z,362
2019-02-27T04:47:10.188Z,362
2019-02-27T04:48:17.390Z,362
2019-02-27T04:49:24.331Z,362
2019-02-27T04:50:31.540Z,363
2019-02-27T04:51:38.490Z,363
2019-02-27T04:52:45.927Z,363
2019-02-27T04:53:52.864Z,363
2019-02-27T04:55:00.094Z,363
2019-02-27T04:56:07.441Z,363
2019-02-27T04:57:14.420Z,363
2019-02-27T04:58:21.620Z,362
2019-02-27T04:59:29.038Z,362
2019-02-27T05:00:35.976Z,363
2019-02-27T05:01:43.405Z,362
2019-02-27T05:02:54.604Z,362
2019-02-27T05:04:03.027Z,362
2019-02-27T05:05:10.308Z,362
2019-02-27T05:06:17.259Z,363
2019-02-27T05:07:24.224Z,362
2019-02-27T05:08:31.425Z,362
2019-02-27T05:09:38.347Z,362
2019-02-27T05:10:45.770Z,362
2019-02-27T05:11:52.981Z,363
2019-02-27T05:13:00.416Z,363
2019-02-27T05:14:07.617Z,363
2019-02-27T05:15:14.836Z,363
2019-02-27T05:16:22.045Z,364
2019-02-27T05:17:29.264Z,364
2019-02-27T05:18:36.484Z,363
2019-02-27T05:19:43.365Z,364
2019-02-27T05:20:50.584Z,364
2019-02-27T05:21:57.788Z,363
2019-02-27T05:23:05.021Z,363
2019-02-27T05:24:11.985Z,364
2019-02-27T05:25:19.194Z,364
2019-02-27T05:26:28.469Z,364
2019-02-27T05:27:35.122Z,363
2019-02-27T05:28:42.545Z,363
2019-02-27T05:29:49.745Z,364
2019-02-27T05:30:56.942Z,363
2019-02-27T05:32:04.164Z,364
2019-02-27T05:33:11.110Z,364
2019-02-27T05:34:18.331Z,364
2019-02-27T05:35:25.546Z,364
2019-02-27T05:36:33.410Z,364
2019-02-27T05:37:40.849Z,365
2019-02-27T05:38:47.476Z,364
2019-02-27T05:39:54.742Z,365
2019-02-27T05:41:01.959Z,364
2019-02-27T05:42:09.173Z,365
2019-02-27T05:43:16.126Z,364
2019-02-27T05:44:23.378Z,364
2019-02-27T05:45:32.228Z,365
2019-02-27T05:46:40.040Z,365
2019-02-27T05:47:46.995Z,364
2019-02-27T05:48:54.910Z,364
2019-02-27T05:50:02.252Z,364
2019-02-27T05:51:11.508Z,363
2019-02-27T05:52:18.776Z,362
2019-02-27T05:53:26.216Z,363
2019-02-27T05:54:33.899Z,363
2019-02-27T05:55:41.344Z,364
2019-02-27T05:56:51.203Z,364
2019-02-27T05:57:58.137Z,364
2019-02-27T05:59:04.832Z,364
2019-02-27T06:00:11.775Z,363
2019-02-27T06:01:18.992Z,363
2019-02-27T06:02:26.562Z,363
2019-02-27T06:03:33.767Z,364
2019-02-27T06:04:40.698Z,364
2019-02-27T06:05:50.682Z,364
2019-02-27T06:06:58.014Z,364
2019-02-27T06:08:05.225Z,365
2019-02-27T06:09:12.435Z,365
2019-02-27T06:10:24.044Z,365
2019-02-27T06:11:34.133Z,365
2019-02-27T06:12:41.927Z,365
2019-02-27T06:13:49.356Z,365
2019-02-27T06:14:56.553Z,365
2019-02-27T06:16:09.427Z,364
2019-02-27T06:17:16.670Z,365
2019-02-27T06:18:24.676Z,365
2019-02-27T06:19:35.161Z,364
2019-02-27T06:20:43.456Z,363
2019-02-27T06:21:50.662Z,363
2019-02-27T06:22:58.097Z,363
2019-02-27T06:24:05.298Z,363
2019-02-27T06:25:12.510Z,363
2019-02-27T06:26:19.711Z,363
2019-02-27T06:27:26.916Z,363
2019-02-27T06:28:34.121Z,364
2019-02-27T06:29:41.563Z,363
2019-02-27T06:30:48.759Z,364
2019-02-27T06:31:56.193Z,363
2019-02-27T06:33:03.390Z,364
2019-02-27T06:34:10.352Z,363
2019-02-27T06:35:17.315Z,364
2019-02-27T06:36:24.534Z,363
2019-02-27T06:37:31.485Z,363
2019-02-27T06:38:38.704Z,363
2019-02-27T06:39:45.920Z,363
2019-02-27T06:40:53.329Z,362
2019-02-27T06:42:00.263Z,362
2019-02-27T06:43:07.511Z,362
2019-02-27T06:44:14.452Z,362
2019-02-27T06:45:21.683Z,362
2019-02-27T06:46:28.914Z,361
2019-02-27T06:47:37.128Z,361
2019-02-27T06:48:45.110Z,361
2019-02-27T06:49:53.176Z,361
2019-02-27T06:51:02.476Z,361
2019-02-27T06:52:10.747Z,361
2019-02-27T06:53:17.952Z,361
2019-02-27T06:54:25.203Z,360
2019-02-27T06:55:34.327Z,360
2019-02-27T06:56:41.758Z,360
2019-02-27T06:57:48.971Z,360
2019-02-27T06:58:56.145Z,359
2019-02-27T07:00:04.097Z,360
2019-02-27T07:01:14.140Z,359
2019-02-27T07:02:23.203Z,359
2019-02-27T07:03:33.805Z,359
2019-02-27T07:04:41.243Z,359
2019-02-27T23:00:12.089Z,373
2019-02-27T23:01:19.337Z,373
2019-02-27T23:02:26.270Z,373
2019-02-27T23:03:33.470Z,374
2019-02-27T23:04:40.673Z,374
2019-02-27T23:05:47.316Z,374
2019-02-27T23:06:54.246Z,374
2019-02-27T23:08:01.180Z,374
2019-02-27T23:09:08.108Z,375
2019-02-27T23:10:31.609Z,375
2019-02-27T23:11:40.637Z,374
2019-02-27T23:12:47.576Z,374
2019-02-27T23:13:54.505Z,374
2019-02-27T23:15:01.457Z,374
2019-02-27T23:16:08.367Z,374
2019-02-27T23:17:15.575Z,374
2019-02-27T23:18:22.773Z,374
2019-02-27T23:19:29.441Z,374
2019-02-27T23:20:36.577Z,374
2019-02-27T23:21:43.524Z,374
2019-02-27T23:22:50.725Z,374
2019-02-27T23:23:57.691Z,374
2019-02-27T23:25:04.874Z,374
2019-02-27T23:26:12.088Z,374
2019-02-27T23:27:19.293Z,375
2019-02-27T23:28:26.500Z,374
2019-02-27T23:29:33.715Z,375
2019-02-27T23:30:40.653Z,374
2019-02-27T23:31:47.299Z,374
2019-02-27T23:32:54.504Z,375
2019-02-27T23:34:01.720Z,374
2019-02-27T23:35:08.940Z,374
2019-02-27T23:36:16.164Z,374
2019-02-27T23:37:23.369Z,374
2019-02-27T23:38:30.572Z,374
2019-02-27T23:39:44.115Z,374
2019-02-27T23:40:51.315Z,374
2019-02-27T23:41:58.513Z,374
2019-02-27T23:43:05.720Z,375
2019-02-27T23:44:13.228Z,374
2019-02-27T23:45:20.158Z,375
2019-02-27T23:46:27.358Z,374
2019-02-27T23:47:34.562Z,373
2019-02-27T23:48:41.782Z,373
2019-02-27T23:49:48.711Z,373
2019-02-27T23:50:55.923Z,373
2019-02-27T23:52:02.854Z,373
2019-02-27T23:53:09.774Z,373
2019-02-27T23:54:16.974Z,373
2019-02-27T23:55:23.624Z,372
2019-02-27T23:56:30.834Z,373
2019-02-27T23:57:38.041Z,374
2019-02-27T23:58:44.965Z,374
2019-02-27T23:59:51.908Z,373
